EGUB

RAF Benson Airport

Benson, United Kingdom
METAR EGUB 190250Z 19004KT CAVOK M00/M02 Q1007 BLU
Observed Flight Rules
Jan-19 @ 02:50 UTC (47 minutes ago) Visual Flight Rules
Wind Visibility Clouds
190° at 4 knots 10,000+ meters
  • Clear skies
Temperatures Readings
Current 0°C / 32°F
Dewpoint -2°C / 28°F
Humidity 87%
Altimeter 29.73" Hg
Pressure 1007 hPa
Elevation 63
METAR EGUB 190250Z 19004KT CAVOK M00/M02 Q1007 BLU
Observed Flight Rules
Jan-19 @ 02:50 UTC
(47 minutes ago)
VFR
Wind Visibility
190° at 4 knots 10,000+ meters
Clouds
  • Clear skies
Temperature Dewpoint
0°C / 32°F -2°C / 28°F
Humidity Altimeter Pressure
87% 29.73" Hg 1007 hPa